createdAt,value
2022-09-10T00:01:59.174Z,1.50
2022-09-10T00:04:47.619Z,1.50
2022-09-10T00:07:37.682Z,1.70
2022-09-10T00:10:27.055Z,1.40
2022-09-10T00:13:15.902Z,1.50
2022-09-10T00:16:05.706Z,1.33
2022-09-10T00:18:54.092Z,1.30
2022-09-10T00:21:42.478Z,1.30
2022-09-10T00:24:33.674Z,1.37
2022-09-10T00:27:22.056Z,1.30
2022-09-10T00:30:12.174Z,1.30
2022-09-10T00:33:00.525Z,1.30
2022-09-10T00:35:50.365Z,1.43
2022-09-10T00:38:38.844Z,1.30
2022-09-10T00:41:29.204Z,1.30
2022-09-10T00:45:00.630Z,1.07
2022-09-10T00:47:50.326Z,1.20
2022-09-10T00:50:41.615Z,1.40
2022-09-10T00:53:30.096Z,1.30
2022-09-10T00:56:18.703Z,1.30
2022-09-10T00:59:09.248Z,1.40
2022-09-10T01:01:59.556Z,1.30
2022-09-10T01:04:47.931Z,1.10
2022-09-10T01:07:37.433Z,1.10
2022-09-10T01:10:28.405Z,1.40
2022-09-10T01:13:34.896Z,1.00
2022-09-10T01:16:29.878Z,1.20
2022-09-10T01:19:34.399Z,1.27
2022-09-10T01:22:29.164Z,1.47
2022-09-10T01:25:22.594Z,1.20
2022-09-10T01:28:14.514Z,1.20
2022-09-10T01:31:11.981Z,1.23
2022-09-10T01:34:03.004Z,1.30
2022-09-10T01:36:51.897Z,1.20
2022-09-10T01:39:40.934Z,1.30
2022-09-10T01:42:29.833Z,1.40
2022-09-10T01:45:19.754Z,1.23
2022-09-10T01:48:35.036Z,1.20
2022-09-10T01:51:28.820Z,1.30
2022-09-10T01:54:30.142Z,1.20
2022-09-10T01:57:29.458Z,1.10
2022-09-10T02:00:22.865Z,1.07
2022-09-10T02:03:16.686Z,0.93
2022-09-10T02:06:10.059Z,1.20
2022-09-10T02:08:59.771Z,1.30
2022-09-10T02:11:49.884Z,1.00
2022-09-10T02:14:58.402Z,1.13
2022-09-10T02:17:56.909Z,1.20
2022-09-10T02:20:45.375Z,1.20
2022-09-10T02:23:39.235Z,1.17
2022-09-10T02:26:27.799Z,1.00
2022-09-10T02:29:17.042Z,1.40
2022-09-10T02:32:08.094Z,1.30
2022-09-10T02:34:58.618Z,1.40
2022-09-10T02:37:50.541Z,1.27
2022-09-10T02:40:39.223Z,1.37
2022-09-10T02:43:29.194Z,1.30
2022-09-10T02:46:19.991Z,1.40
2022-09-10T02:49:09.886Z,1.53
2022-09-10T02:52:02.705Z,1.30
2022-09-10T02:54:51.367Z,1.30
2022-09-10T02:57:40.334Z,1.20
2022-09-10T03:00:28.731Z,1.43
2022-09-10T03:03:17.241Z,1.13
2022-09-10T03:06:06.557Z,1.20
2022-09-10T03:08:57.463Z,1.17
2022-09-10T03:11:47.772Z,1.20
2022-09-10T03:14:36.100Z,1.10
2022-09-10T03:17:24.490Z,1.10
2022-09-10T03:20:12.853Z,1.10
2022-09-10T03:23:01.213Z,1.10
2022-09-10T03:25:50.944Z,1.40
2022-09-10T03:28:47.508Z,1.30
2022-09-10T03:31:37.671Z,1.40
2022-09-10T03:34:26.068Z,1.30
2022-09-10T03:37:14.503Z,1.20
2022-09-10T03:40:04.579Z,1.20
2022-09-10T03:42:54.468Z,1.20
2022-09-10T03:45:44.072Z,1.50
2022-09-10T03:48:32.499Z,1.20
2022-09-10T03:51:20.836Z,1.20
2022-09-10T03:54:09.529Z,1.33
2022-09-10T03:57:03.327Z,1.30
2022-09-10T03:59:54.569Z,1.40
2022-09-10T04:02:44.054Z,1.40
2022-09-10T04:05:33.506Z,1.10
2022-09-10T04:08:22.021Z,1.10
2022-09-10T04:11:13.702Z,1.40
2022-09-10T04:14:02.046Z,1.20
2022-09-10T04:16:52.231Z,1.20
2022-09-10T04:19:41.453Z,1.40
2022-09-10T04:22:29.917Z,1.40
2022-09-10T04:25:20.571Z,1.40
2022-09-10T04:28:09.427Z,1.40
2022-09-10T04:30:59.558Z,1.30
2022-09-10T04:33:49.490Z,1.20
2022-09-10T04:36:42.292Z,1.70
2022-09-10T04:39:30.918Z,1.30
2022-09-10T04:42:20.297Z,1.50
2022-09-10T04:45:10.744Z,1.30
2022-09-10T04:48:01.634Z,1.40
2022-09-10T04:51:14.667Z,1.47
2022-09-10T04:54:05.349Z,1.50
2022-09-10T04:56:57.836Z,1.40
2022-09-10T04:59:46.172Z,1.40
2022-09-10T05:02:37.595Z,1.60
2022-09-10T05:05:25.963Z,1.50
2022-09-10T05:08:15.775Z,1.43
2022-09-10T05:11:11.551Z,1.40
2022-09-10T05:13:59.921Z,1.80
2022-09-10T05:16:50.780Z,1.67
2022-09-10T05:19:39.387Z,1.50
2022-09-10T05:22:37.188Z,1.50
2022-09-10T05:25:30.029Z,1.23
2022-09-10T05:28:22.607Z,1.40
2022-09-10T05:31:10.994Z,1.60
2022-09-10T05:34:01.267Z,1.60
2022-09-10T05:36:51.821Z,1.23
2022-09-10T05:39:40.227Z,1.50
2022-09-10T05:42:31.035Z,1.60
2022-09-10T05:45:20.262Z,1.47
2022-09-10T05:48:08.868Z,1.83
2022-09-10T05:50:57.327Z,1.77
2022-09-10T05:53:45.918Z,1.40
2022-09-10T05:56:34.676Z,1.47
2022-09-10T05:59:24.970Z,1.67
2022-09-10T06:02:19.492Z,1.47
2022-09-10T06:05:11.213Z,1.40
2022-09-10T06:07:59.783Z,1.60
2022-09-10T06:10:57.285Z,1.50
2022-09-10T06:13:47.549Z,1.50
2022-09-10T06:16:37.423Z,1.30
2022-09-10T06:19:28.252Z,1.63
2022-09-10T06:22:17.392Z,1.50
2022-09-10T06:25:10.905Z,1.60
2022-09-10T06:28:01.713Z,1.60
2022-09-10T06:30:50.469Z,1.40
2022-09-10T06:33:40.271Z,1.77
2022-09-10T06:36:29.587Z,1.50
2022-09-10T06:39:18.559Z,1.77
2022-09-10T06:42:10.940Z,1.60
2022-09-10T06:45:16.617Z,1.50
2022-09-10T06:48:48.390Z,1.73
2022-09-10T06:51:40.519Z,1.80
2022-09-10T06:54:30.942Z,1.57
2022-09-10T06:57:31.793Z,1.60
2022-09-10T07:00:22.365Z,1.60
2022-09-10T07:03:14.875Z,1.70
2022-09-10T07:06:06.966Z,1.50
2022-09-10T07:08:57.492Z,1.60
2022-09-10T07:11:49.148Z,1.50
2022-09-10T07:14:39.111Z,1.97
2022-09-10T07:17:31.884Z,1.83
2022-09-10T07:20:23.265Z,1.83
2022-09-10T07:23:12.939Z,1.63
2022-09-10T07:26:06.416Z,1.90
2022-09-10T07:29:00.409Z,1.90
2022-09-10T07:31:49.065Z,1.50
2022-09-10T07:34:42.280Z,1.80
2022-09-10T07:37:32.294Z,1.80
2022-09-10T07:40:21.148Z,1.70
2022-09-10T07:46:50.900Z,1.70
2022-09-10T07:49:40.565Z,1.90
2022-09-10T07:52:29.758Z,2.17
2022-09-10T07:55:19.083Z,1.77
2022-09-10T07:58:07.770Z,1.80
2022-09-10T08:00:57.322Z,1.70
2022-09-10T08:03:47.077Z,1.60
2022-09-10T08:06:38.955Z,1.60
2022-09-10T08:09:27.733Z,1.60
2022-09-10T08:12:17.639Z,1.80
2022-09-10T08:15:08.475Z,1.90
2022-09-10T08:17:56.961Z,1.70
2022-09-10T08:20:46.851Z,1.77
2022-09-10T08:23:35.381Z,1.90
2022-09-10T08:26:24.356Z,1.70
2022-09-10T08:29:13.838Z,2.10
2022-09-10T08:32:02.976Z,2.30
2022-09-10T08:34:53.404Z,1.80
2022-09-10T08:37:43.663Z,1.80
2022-09-10T08:40:32.561Z,1.63
2022-09-10T08:43:25.675Z,1.63
2022-09-10T08:46:17.421Z,1.80
2022-09-10T08:49:09.060Z,1.77
2022-09-10T08:52:01.573Z,2.07
2022-09-10T08:54:58.983Z,1.67
2022-09-10T08:57:50.136Z,1.53
2022-09-10T09:00:40.268Z,1.50
2022-09-10T09:03:35.799Z,2.00
2022-09-10T09:06:29.069Z,2.40
2022-09-10T09:09:18.119Z,1.90
2022-09-10T09:12:16.110Z,1.60
2022-09-10T09:15:10.382Z,2.20
2022-09-10T09:18:10.962Z,1.80
2022-09-10T09:21:04.152Z,1.90
2022-09-10T09:24:13.637Z,1.90
2022-09-10T09:27:13.837Z,1.70
2022-09-10T09:30:06.002Z,1.70
2022-09-10T09:33:16.315Z,1.90
2022-09-10T09:36:06.214Z,1.70
2022-09-10T09:38:56.924Z,1.77
2022-09-10T09:41:52.526Z,2.10
2022-09-10T09:44:47.069Z,1.90
2022-09-10T09:47:35.787Z,1.77
2022-09-10T09:50:25.124Z,2.10
2022-09-10T09:53:18.875Z,2.10
2022-09-10T09:56:13.387Z,1.80
2022-09-10T09:59:13.054Z,1.93
2022-09-10T10:02:13.213Z,2.07
2022-09-10T10:05:06.992Z,1.67
2022-09-10T10:07:55.339Z,1.90
2022-09-10T10:10:44.211Z,1.60
2022-09-10T10:13:38.240Z,1.70
2022-09-10T10:16:36.091Z,1.60
2022-09-10T10:19:31.607Z,1.97
2022-09-10T10:22:25.750Z,2.30
2022-09-10T10:25:38.250Z,1.87
2022-09-10T10:28:27.392Z,1.90
2022-09-10T10:31:15.781Z,1.70
2022-09-10T10:34:28.386Z,1.80
2022-09-10T10:37:23.576Z,1.90
2022-09-10T10:40:16.685Z,1.90
2022-09-10T10:43:11.786Z,1.67
2022-09-10T10:46:02.259Z,1.93
2022-09-10T10:49:06.487Z,1.63
2022-09-10T10:52:01.955Z,1.97
2022-09-10T10:55:03.421Z,2.20
2022-09-10T10:58:13.002Z,1.80
2022-09-10T11:01:05.054Z,1.83
2022-09-10T11:04:00.572Z,2.20
2022-09-10T11:06:53.384Z,2.00
2022-09-10T11:09:43.855Z,1.60
2022-09-10T11:12:36.038Z,1.70
2022-09-10T11:15:30.265Z,1.70
2022-09-10T11:18:21.874Z,1.77
2022-09-10T11:21:18.750Z,1.90
2022-09-10T11:24:16.350Z,1.60
2022-09-10T11:27:08.324Z,1.70
2022-09-10T11:30:01.578Z,1.60
2022-09-10T11:32:54.765Z,1.70
2022-09-10T11:35:45.389Z,1.80
2022-09-10T11:38:42.703Z,1.83
2022-09-10T11:41:32.613Z,1.63
2022-09-10T11:44:38.526Z,1.80
2022-09-10T11:47:31.224Z,1.80
2022-09-10T11:50:33.683Z,1.50
2022-09-10T11:53:24.689Z,1.60
2022-09-10T11:56:46.951Z,2.10
2022-09-10T11:59:50.254Z,1.80
2022-09-10T12:03:32.036Z,1.90
2022-09-10T12:06:23.800Z,1.60
2022-09-10T12:09:15.762Z,1.80
2022-09-10T12:12:07.125Z,1.50
2022-09-10T12:14:56.016Z,1.57
2022-09-10T12:17:45.230Z,1.90
2022-09-10T12:20:35.383Z,1.60
2022-09-10T12:23:27.667Z,1.93
2022-09-10T12:26:19.790Z,1.60
2022-09-10T12:29:33.118Z,1.70
2022-09-10T12:32:30.785Z,1.57
2022-09-10T12:35:47.657Z,1.40
2022-09-10T12:38:51.792Z,1.73
2022-09-10T12:42:03.135Z,1.90
2022-09-10T12:44:51.475Z,1.90
2022-09-10T12:47:52.989Z,1.93
2022-09-10T12:50:46.137Z,2.00
2022-09-10T12:54:02.794Z,2.17
2022-09-10T12:57:12.674Z,1.70
2022-09-10T13:00:25.851Z,1.47
2022-09-10T13:03:17.572Z,1.47
2022-09-10T13:06:07.009Z,1.40
2022-09-10T13:08:55.364Z,1.50
2022-09-10T13:11:46.534Z,1.33
2022-09-10T13:14:38.070Z,1.33
2022-09-10T13:18:15.701Z,1.63
2022-09-10T13:21:52.787Z,1.57
2022-09-10T13:25:03.447Z,1.80
2022-09-10T13:27:53.973Z,1.57
2022-09-10T13:30:42.370Z,1.47
2022-09-10T13:33:31.063Z,1.60
2022-09-10T13:36:24.727Z,1.60
2022-09-10T13:39:57.288Z,1.40
2022-09-10T13:43:05.602Z,1.30
2022-09-10T13:45:55.989Z,1.00
2022-09-10T13:48:47.319Z,1.10
2022-09-10T13:51:37.597Z,1.20
2022-09-10T13:54:34.352Z,1.10
2022-09-10T13:57:26.544Z,1.33
2022-09-10T14:00:23.578Z,1.17
2022-09-10T14:03:16.065Z,1.10
2022-09-10T14:06:05.144Z,1.23
2022-09-10T14:08:55.472Z,1.10
2022-09-10T14:11:44.010Z,1.00
2022-09-10T14:14:35.919Z,1.20
2022-09-10T14:17:27.328Z,1.23
2022-09-10T14:20:19.392Z,1.30
2022-09-10T14:23:13.292Z,1.00
2022-09-10T14:26:23.151Z,1.13
2022-09-10T14:29:24.433Z,1.10
2022-09-10T14:32:28.857Z,1.10
2022-09-10T14:35:39.170Z,0.80
2022-09-10T14:38:29.011Z,1.10
2022-09-10T14:41:22.680Z,0.93
2022-09-10T14:44:16.595Z,0.83
2022-09-10T14:47:14.537Z,1.30
2022-09-10T14:50:30.829Z,1.13
2022-09-10T14:53:19.152Z,1.13
2022-09-10T14:56:13.758Z,1.23
2022-09-10T14:59:03.446Z,1.10
2022-09-10T15:01:51.867Z,0.83
2022-09-10T15:04:40.311Z,1.00
2022-09-10T15:07:30.182Z,1.10
2022-09-10T15:10:18.637Z,0.97
2022-09-10T15:13:07.267Z,1.10
2022-09-10T15:15:55.874Z,1.27
2022-09-10T15:18:44.311Z,1.10
2022-09-10T15:21:32.657Z,1.20
2022-09-10T15:24:23.695Z,1.20
2022-09-10T15:27:12.302Z,1.20
2022-09-10T15:30:00.860Z,1.30
2022-09-10T15:32:49.215Z,1.20
2022-09-10T15:35:37.556Z,1.17
2022-09-10T15:38:25.883Z,1.30
2022-09-10T15:41:16.936Z,1.17
2022-09-10T15:44:05.934Z,1.30
2022-09-10T15:46:54.418Z,1.40
2022-09-10T15:49:42.916Z,1.37
2022-09-10T15:52:32.452Z,1.20
2022-09-10T15:55:21.003Z,1.20
2022-09-10T15:58:12.492Z,1.10
2022-09-10T16:01:04.905Z,1.30
2022-09-10T16:03:55.279Z,1.20
2022-09-10T16:06:43.716Z,1.20
2022-09-10T16:09:32.444Z,1.20
2022-09-10T16:12:20.771Z,1.10
2022-09-10T16:15:12.220Z,1.10
2022-09-10T16:18:00.754Z,1.20
2022-09-10T16:20:49.400Z,1.10
2022-09-10T16:23:38.129Z,1.17
2022-09-10T16:26:29.426Z,1.20
2022-09-10T16:29:19.424Z,1.20
2022-09-10T16:32:09.344Z,1.03
2022-09-10T16:34:57.678Z,1.40
2022-09-10T16:37:46.081Z,1.43
2022-09-10T16:40:34.533Z,1.37
2022-09-10T16:43:23.242Z,1.10
2022-09-10T16:46:12.633Z,1.53
2022-09-10T16:49:02.384Z,1.30
2022-09-10T16:51:50.806Z,1.43
2022-09-10T16:54:40.021Z,1.23
2022-09-10T16:57:28.448Z,1.30
2022-09-10T17:00:18.096Z,1.57
2022-09-10T17:03:06.644Z,1.40
2022-09-10T17:05:56.730Z,1.80
2022-09-10T17:08:45.215Z,1.90
2022-09-10T17:11:33.866Z,1.63
2022-09-10T17:14:22.484Z,1.63
2022-09-10T17:17:10.850Z,1.57
2022-09-10T17:19:59.324Z,1.77
2022-09-10T17:22:49.040Z,1.80
2022-09-10T17:25:37.552Z,1.70
2022-09-10T17:28:27.241Z,2.53
2022-09-10T17:31:15.601Z,2.30
2022-09-10T17:34:05.771Z,1.90
2022-09-10T17:36:54.376Z,1.80
2022-09-10T17:39:44.760Z,1.70
2022-09-10T17:42:33.237Z,1.77
2022-09-10T17:45:21.923Z,1.50
2022-09-10T17:48:10.295Z,1.63
2022-09-10T17:50:59.250Z,1.50
2022-09-10T17:53:47.685Z,1.70
2022-09-10T17:56:37.999Z,1.30
2022-09-10T17:59:27.095Z,1.40
2022-09-10T18:02:16.314Z,1.60
2022-09-10T18:05:05.561Z,1.40
2022-09-10T18:07:53.896Z,1.53
2022-09-10T18:10:42.291Z,1.37
2022-09-10T18:13:32.195Z,1.60
2022-09-10T18:16:22.391Z,1.70
2022-09-10T18:19:14.424Z,1.90
2022-09-10T18:22:02.895Z,2.07
2022-09-10T18:24:51.426Z,1.93
2022-09-10T18:27:41.515Z,2.00
2022-09-10T18:30:31.214Z,2.13
2022-09-10T18:33:19.565Z,2.10
2022-09-10T18:36:13.473Z,2.00
2022-09-10T18:39:03.503Z,2.23
2022-09-10T18:41:51.956Z,2.20
2022-09-10T18:44:40.312Z,2.10
2022-09-10T18:47:44.209Z,2.30
2022-09-10T18:50:33.884Z,1.93
2022-09-10T18:53:23.311Z,1.77
2022-09-10T18:56:13.556Z,1.70
2022-09-10T18:59:06.988Z,1.70
2022-09-10T19:01:55.733Z,1.53
2022-09-10T19:05:09.878Z,2.00
2022-09-10T19:07:53.976Z,1.80
2022-09-10T19:10:42.337Z,2.20
2022-09-10T19:13:31.426Z,2.20
2022-09-10T19:16:20.276Z,1.90
2022-09-10T19:19:09.116Z,2.20
2022-09-10T19:22:01.060Z,2.10
2022-09-10T19:24:54.931Z,2.27
2022-09-10T19:27:45.071Z,2.40
2022-09-10T19:30:38.328Z,2.30
2022-09-10T19:33:27.638Z,2.27
2022-09-10T19:36:17.760Z,2.20
2022-09-10T19:39:08.816Z,2.30
2022-09-10T19:41:57.163Z,2.23
2022-09-10T19:44:45.491Z,1.97
2022-09-10T19:47:33.974Z,2.17
2022-09-10T19:50:23.453Z,2.33
2022-09-10T19:53:12.132Z,2.03
2022-09-10T19:56:06.827Z,2.23
2022-09-10T19:58:56.530Z,2.00
2022-09-10T20:01:45.884Z,2.20
2022-09-10T20:04:34.601Z,2.00
2022-09-10T20:07:23.010Z,1.90
2022-09-10T20:10:11.510Z,2.27
2022-09-10T20:13:01.284Z,2.03
2022-09-10T20:15:50.101Z,2.00
2022-09-10T20:18:39.048Z,2.30
2022-09-10T20:21:29.899Z,2.50
2022-09-10T20:24:18.310Z,2.10
2022-09-10T20:27:06.778Z,2.20
2022-09-10T20:29:56.836Z,2.00
2022-09-10T20:32:45.714Z,2.30
2022-09-10T20:35:34.123Z,2.30
2022-09-10T20:38:22.591Z,2.40
2022-09-10T20:41:11.702Z,2.13
2022-09-10T20:44:01.138Z,2.00
2022-09-10T20:46:50.980Z,2.23
2022-09-10T20:49:39.372Z,2.17
2022-09-10T20:52:27.702Z,2.40
2022-09-10T20:55:16.179Z,2.00
2022-09-10T20:58:04.569Z,2.73
2022-09-10T21:00:52.949Z,2.10
2022-09-10T21:03:42.790Z,2.77
2022-09-10T21:06:32.936Z,2.30
2022-09-10T21:09:21.299Z,2.10
2022-09-10T21:12:11.314Z,2.27
2022-09-10T21:14:59.663Z,2.80
2022-09-10T21:17:49.273Z,2.20
2022-09-10T21:20:39.014Z,2.40
2022-09-10T21:23:27.348Z,2.30
2022-09-10T21:26:17.559Z,2.43
2022-09-10T21:29:07.232Z,2.30
2022-09-10T21:31:56.726Z,2.57
2022-09-10T21:34:45.181Z,2.30
2022-09-10T21:37:35.077Z,2.70
2022-09-10T21:40:24.177Z,2.50
2022-09-10T21:43:14.037Z,2.10
2022-09-10T21:46:02.634Z,2.40
2022-09-10T21:48:52.323Z,2.63
2022-09-10T21:51:41.111Z,2.30
2022-09-10T21:54:30.884Z,2.50
2022-09-10T21:57:19.372Z,2.30
2022-09-10T22:00:09.356Z,2.10
2022-09-10T22:03:01.660Z,2.50
2022-09-10T22:05:50.036Z,2.40
2022-09-10T22:08:39.754Z,2.50
2022-09-10T22:11:31.506Z,2.53
2022-09-10T22:14:21.309Z,2.30
2022-09-10T22:17:09.694Z,2.53
2022-09-10T22:19:58.100Z,2.57
2022-09-10T22:22:46.454Z,2.17
2022-09-10T22:25:35.039Z,2.17
2022-09-10T22:28:24.727Z,2.27
2022-09-10T22:31:14.665Z,2.50
2022-09-10T22:34:04.527Z,2.10
2022-09-10T22:36:52.897Z,2.40
2022-09-10T22:39:41.281Z,2.50
2022-09-10T22:42:30.983Z,2.00
2022-09-10T22:45:20.945Z,2.13
2022-09-10T22:48:10.146Z,2.43
2022-09-10T22:50:59.747Z,2.33
2022-09-10T22:53:48.199Z,2.60
2022-09-10T22:56:36.707Z,2.47
2022-09-10T22:59:27.729Z,2.30
2022-09-10T23:02:17.390Z,2.33
2022-09-10T23:05:06.558Z,2.40
2022-09-10T23:07:54.905Z,2.60
2022-09-10T23:10:43.329Z,2.50
2022-09-10T23:13:31.689Z,2.40
2022-09-10T23:16:22.145Z,2.97
2022-09-10T23:19:14.044Z,2.70
2022-09-10T23:22:03.493Z,2.73
2022-09-10T23:24:51.823Z,3.30
2022-09-10T23:27:40.275Z,2.80
2022-09-10T23:30:29.523Z,3.13
2022-09-10T23:33:17.878Z,2.57
2022-09-10T23:36:08.450Z,2.63
2022-09-10T23:38:56.868Z,2.70
2022-09-10T23:41:45.275Z,2.70
2022-09-10T23:44:33.967Z,2.60
2022-09-10T23:47:22.318Z,2.80
2022-09-10T23:50:11.142Z,3.10
2022-09-10T23:53:00.882Z,2.90
2022-09-10T23:55:49.360Z,3.20
2022-09-10T23:58:38.954Z,3.00
